createdAt,value
2019-04-04T00:00:55.346Z,6.21
2019-04-04T00:04:02.331Z,6.24
2019-04-04T00:07:09.844Z,6.26
2019-04-04T00:10:16.262Z,6.25
2019-04-04T00:13:22.608Z,6.22
2019-04-04T00:16:29.114Z,6.28
2019-04-04T00:19:35.380Z,6.30
2019-04-04T00:22:41.872Z,6.29
2019-04-04T00:25:48.890Z,6.36
2019-04-04T00:28:55.374Z,6.37
2019-04-04T00:32:01.634Z,6.37
2019-04-04T00:35:08.611Z,6.40
2019-04-04T00:38:15.025Z,6.42
2019-04-04T00:41:21.521Z,6.47
2019-04-04T00:44:27.886Z,6.42
2019-04-04T00:47:34.307Z,6.48
2019-04-04T00:50:40.665Z,6.52
2019-04-04T00:53:47.151Z,6.56
2019-04-04T00:56:53.436Z,6.52
2019-04-04T01:00:00.165Z,6.53
2019-04-04T01:03:06.520Z,6.47
2019-04-04T01:06:13.031Z,6.45
2019-04-04T01:09:19.449Z,6.54
2019-04-04T01:12:26.091Z,6.49
2019-04-04T01:15:32.372Z,6.47
2019-04-04T01:18:38.801Z,6.51
2019-04-04T01:21:45.200Z,6.41
2019-04-04T01:24:51.560Z,6.41
2019-04-04T01:27:58.147Z,6.42
2019-04-04T01:31:04.531Z,6.39
2019-04-04T01:34:10.957Z,6.34
2019-04-04T01:37:17.628Z,6.33
2019-04-04T01:40:23.992Z,6.29
2019-04-04T01:43:30.483Z,6.25
2019-04-04T01:46:36.905Z,6.18
2019-04-04T01:49:43.570Z,6.30
2019-04-04T01:52:49.938Z,6.24
2019-04-04T01:55:56.554Z,6.19
2019-04-04T01:59:03.024Z,6.18
2019-04-04T02:02:10.047Z,6.14
2019-04-04T02:05:16.446Z,6.05
2019-04-04T02:08:22.891Z,6.12
2019-04-04T02:11:29.396Z,5.99
2019-04-04T02:14:36.308Z,6.03
2019-04-04T02:17:42.724Z,5.99
2019-04-04T02:20:50.006Z,5.99
2019-04-04T02:23:57.351Z,5.93
2019-04-04T02:27:04.898Z,5.86
2019-04-04T02:30:15.988Z,5.82
2019-04-04T02:33:21.204Z,5.81
2019-04-04T02:36:27.547Z,5.76
2019-04-04T02:39:35.352Z,5.70
2019-04-04T02:42:41.924Z,5.72
2019-04-04T02:45:48.420Z,5.62
2019-04-04T02:48:56.237Z,5.63
2019-04-04T02:52:03.086Z,5.59
2019-04-04T02:55:09.428Z,5.61
2019-04-04T02:58:15.830Z,5.53
2019-04-04T03:01:22.173Z,5.43
2019-04-04T03:04:30.101Z,5.46
2019-04-04T03:07:36.426Z,5.45
2019-04-04T03:10:47.799Z,5.38
2019-04-04T03:13:52.161Z,5.35
2019-04-04T03:16:58.584Z,5.34
2019-04-04T03:20:05.666Z,5.30
2019-04-04T03:23:12.076Z,5.24
2019-04-04T03:26:20.100Z,5.24
2019-04-04T03:29:26.795Z,5.21
2019-04-04T03:32:33.409Z,5.11
2019-04-04T03:35:39.778Z,5.14
2019-04-04T03:38:47.243Z,5.08
2019-04-04T03:41:53.987Z,4.98
2019-04-04T03:45:00.303Z,4.93
2019-04-04T03:48:06.800Z,4.92
2019-04-04T03:51:13.131Z,4.92
2019-04-04T03:54:23.589Z,4.79
2019-04-04T03:57:29.898Z,4.91
2019-04-04T04:00:40.345Z,4.91
2019-04-04T04:03:46.057Z,4.82
2019-04-04T04:06:52.846Z,4.78
2019-04-04T04:10:00.357Z,4.81
2019-04-04T04:13:07.248Z,4.77
2019-04-04T04:16:13.599Z,4.74
2019-04-04T04:19:24.032Z,4.83
2019-04-04T04:22:28.251Z,4.74
2019-04-04T04:25:36.897Z,4.73
2019-04-04T04:28:43.429Z,4.73
2019-04-04T04:31:49.950Z,4.70
2019-04-04T04:34:56.410Z,4.70
2019-04-04T04:38:02.972Z,4.80
2019-04-04T04:41:09.436Z,4.76
2019-04-04T04:44:15.881Z,4.62
2019-04-04T04:47:23.822Z,4.62
2019-04-04T04:50:30.363Z,4.76
2019-04-04T04:53:36.738Z,4.78
2019-04-04T04:56:43.727Z,4.73
2019-04-04T04:59:50.142Z,4.82
2019-04-04T05:02:56.554Z,4.86
2019-04-04T05:06:03.452Z,4.91
2019-04-04T05:09:11.839Z,4.70
2019-04-04T05:12:21.698Z,4.70
2019-04-04T05:15:26.811Z,4.80
2019-04-04T05:18:33.398Z,4.86
2019-04-04T05:21:39.868Z,4.91
2019-04-04T05:24:49.139Z,4.89
2019-04-04T05:27:54.380Z,4.90
2019-04-04T05:31:00.728Z,4.99
2019-04-04T05:34:07.399Z,4.58
2019-04-04T05:37:14.635Z,5.02
2019-04-04T05:40:23.617Z,5.04
2019-04-04T05:43:31.675Z,5.12
2019-04-04T05:46:38.269Z,5.14
2019-04-04T05:49:44.612Z,5.16
2019-04-04T05:52:51.017Z,5.24
2019-04-04T05:55:57.740Z,5.31
2019-04-04T05:59:05.150Z,5.42
2019-04-04T06:02:12.175Z,5.44
2019-04-04T06:05:18.684Z,5.50
2019-04-04T06:08:25.021Z,5.57
2019-04-04T06:11:32.947Z,5.67
2019-04-04T06:14:39.226Z,5.73
2019-04-04T06:17:45.550Z,5.81
2019-04-04T06:20:51.983Z,5.88
2019-04-04T06:23:58.414Z,5.97
2019-04-04T06:27:04.857Z,6.00
2019-04-04T06:30:11.264Z,6.12
2019-04-04T06:33:18.098Z,6.20
2019-04-04T06:36:24.672Z,6.27
2019-04-04T06:39:31.776Z,6.32
2019-04-04T06:42:38.173Z,6.47
2019-04-04T06:45:46.530Z,6.49
2019-04-04T06:48:52.636Z,6.58
2019-04-04T06:51:58.984Z,6.67
2019-04-04T06:55:05.838Z,6.76
2019-04-04T06:58:12.199Z,6.85
2019-04-04T07:01:20.942Z,6.97
2019-04-04T07:04:26.841Z,6.99
2019-04-04T07:07:33.119Z,7.11
2019-04-04T07:10:39.478Z,7.15
2019-04-04T07:13:46.277Z,7.23
2019-04-04T07:16:52.747Z,7.32
2019-04-04T07:19:59.168Z,7.37
2019-04-04T07:23:05.524Z,7.49
2019-04-04T07:26:14.824Z,7.50
2019-04-04T07:29:20.279Z,7.70
2019-04-04T07:32:26.752Z,7.78
2019-04-04T07:35:34.197Z,7.88
2019-04-04T07:38:41.686Z,7.90
2019-04-04T07:41:48.589Z,7.95
2019-04-04T07:44:55.169Z,7.99
2019-04-04T07:48:01.483Z,8.04
2019-04-04T07:51:07.855Z,8.08
2019-04-04T07:54:14.285Z,8.18
2019-04-04T07:57:20.687Z,8.23
2019-04-04T08:00:27.037Z,8.31
2019-04-04T08:03:33.757Z,8.43
2019-04-04T08:06:40.112Z,8.52
2019-04-04T08:09:46.783Z,8.79
2019-04-04T08:12:53.115Z,8.97
2019-04-04T08:16:01.146Z,8.88
2019-04-04T08:19:07.498Z,9.03
2019-04-04T08:22:14.220Z,9.31
2019-04-04T08:25:20.625Z,9.64
2019-04-04T08:28:27.213Z,9.82
2019-04-04T08:31:33.567Z,10.02
2019-04-04T08:34:39.979Z,10.22
2019-04-04T08:37:46.415Z,10.43
2019-04-04T08:40:53.011Z,10.37
2019-04-04T08:43:59.722Z,10.56
2019-04-04T08:47:06.193Z,10.67
2019-04-04T08:50:12.553Z,10.60
2019-04-04T08:53:19.025Z,10.81
2019-04-04T08:56:26.504Z,10.85
2019-04-04T08:59:32.961Z,11.15
2019-04-04T09:02:39.401Z,11.19
2019-04-04T09:05:45.855Z,11.76
2019-04-04T09:08:52.232Z,11.43
2019-04-04T09:11:58.646Z,11.78
2019-04-04T09:15:05.347Z,11.77
2019-04-04T09:18:12.959Z,11.39
2019-04-04T09:21:19.455Z,11.86
2019-04-04T09:24:26.010Z,11.91
2019-04-04T09:27:32.445Z,11.72
2019-04-04T09:30:39.238Z,12.05
2019-04-04T09:33:45.641Z,11.72
2019-04-04T09:36:52.319Z,11.53
2019-04-04T09:39:58.580Z,11.91
2019-04-04T09:43:04.967Z,12.33
2019-04-04T09:46:11.822Z,13.04
2019-04-04T09:49:18.298Z,13.27
2019-04-04T09:52:25.723Z,13.32
2019-04-04T09:55:32.415Z,12.85
2019-04-04T09:58:38.968Z,13.02
2019-04-04T10:01:45.344Z,12.72
2019-04-04T10:04:51.699Z,13.43
2019-04-04T10:07:58.119Z,13.43
2019-04-04T10:11:04.501Z,13.16
2019-04-04T10:14:11.250Z,13.32
2019-04-04T10:17:17.614Z,13.83
2019-04-04T10:20:24.371Z,13.95
2019-04-04T10:23:30.803Z,14.61
2019-04-04T10:26:37.323Z,13.94
2019-04-04T10:29:43.669Z,13.77
2019-04-04T10:32:50.389Z,14.43
2019-04-04T10:35:56.735Z,14.48
2019-04-04T10:39:04.784Z,14.38
2019-04-04T10:42:11.518Z,14.87
2019-04-04T10:45:18.011Z,14.87
2019-04-04T10:48:24.721Z,13.80
2019-04-04T10:51:31.164Z,13.55
2019-04-04T10:54:37.670Z,14.18
2019-04-04T10:57:44.076Z,14.48
2019-04-04T11:00:50.496Z,14.67
2019-04-04T11:03:56.908Z,14.67
2019-04-04T11:07:03.612Z,14.94
2019-04-04T11:10:10.274Z,14.94
2019-04-04T11:13:16.535Z,14.92
2019-04-04T11:16:29.896Z,15.02
2019-04-04T11:19:31.627Z,15.16
2019-04-04T11:22:38.417Z,14.28
2019-04-04T11:25:44.674Z,15.55
2019-04-04T11:28:51.132Z,15.39
2019-04-04T11:31:57.496Z,15.80
2019-04-04T11:35:04.710Z,16.00
2019-04-04T11:38:11.003Z,15.74
2019-04-04T11:41:17.560Z,16.15
2019-04-04T11:44:23.922Z,15.34
2019-04-04T11:47:30.710Z,15.26
2019-04-04T11:50:39.712Z,15.52
2019-04-04T11:53:46.144Z,15.33
2019-04-04T11:56:52.499Z,15.47
2019-04-04T11:59:59.039Z,15.10
2019-04-04T12:03:05.414Z,15.10
2019-04-04T12:06:12.099Z,15.02
2019-04-04T12:09:19.497Z,14.59
2019-04-04T12:12:25.963Z,13.54
2019-04-04T12:15:32.247Z,13.60
2019-04-04T12:18:38.799Z,13.93
2019-04-04T12:21:45.213Z,14.20
2019-04-04T12:24:52.250Z,13.98
2019-04-04T12:27:58.611Z,13.75
2019-04-04T12:31:05.530Z,13.60
2019-04-04T12:34:11.904Z,13.17
2019-04-04T12:37:18.463Z,13.57
2019-04-04T12:40:24.834Z,13.57
2019-04-04T12:43:32.026Z,13.91
2019-04-04T12:46:42.360Z,14.13
2019-04-04T12:49:47.521Z,14.14
2019-04-04T12:52:55.247Z,14.06
2019-04-04T12:56:01.943Z,13.91
2019-04-04T12:59:08.285Z,12.70
2019-04-04T13:02:14.843Z,13.54
2019-04-04T13:05:21.364Z,13.25
2019-04-04T13:08:30.406Z,13.96
2019-04-04T13:11:35.789Z,14.14
2019-04-04T13:14:42.291Z,12.78
2019-04-04T13:17:48.634Z,12.85
2019-04-04T13:20:55.070Z,12.58
2019-04-04T13:24:02.367Z,11.99
2019-04-04T13:27:09.259Z,12.29
2019-04-04T13:30:15.717Z,12.84
2019-04-04T13:33:22.649Z,12.84
2019-04-04T13:36:29.160Z,12.08
2019-04-04T13:39:35.593Z,12.13
2019-04-04T13:42:41.956Z,11.88
2019-04-04T13:45:48.601Z,11.49
2019-04-04T13:48:54.855Z,11.49
2019-04-04T13:52:01.676Z,11.23
2019-04-04T13:55:08.235Z,11.21
2019-04-04T13:58:17.447Z,11.66
2019-04-04T14:01:25.276Z,11.66
2019-04-04T14:04:30.805Z,11.69
2019-04-04T14:07:37.170Z,11.62
2019-04-04T14:10:43.915Z,11.93
2019-04-04T14:13:50.378Z,11.77
2019-04-04T14:16:58.049Z,11.96
2019-04-04T14:20:05.023Z,11.21
2019-04-04T14:23:12.005Z,11.62
2019-04-04T14:26:18.411Z,11.69
2019-04-04T14:29:27.844Z,11.81
2019-04-04T14:32:33.755Z,11.33
2019-04-04T14:35:40.140Z,11.58
2019-04-04T14:38:46.476Z,11.36
2019-04-04T14:41:52.926Z,11.57
2019-04-04T14:44:59.877Z,10.87
2019-04-04T14:48:08.740Z,11.01
2019-04-04T14:51:16.522Z,11.15
2019-04-04T14:54:23.054Z,11.16
2019-04-04T14:57:29.746Z,11.10
2019-04-04T15:00:36.211Z,11.20
2019-04-04T15:03:42.572Z,10.89
2019-04-04T15:06:49.292Z,10.78
2019-04-04T15:09:55.658Z,10.62
2019-04-04T15:13:02.114Z,10.80
2019-04-04T15:16:15.399Z,10.78
2019-04-04T15:19:21.931Z,10.78
2019-04-04T15:22:28.390Z,10.73
2019-04-04T15:25:36.550Z,10.61
2019-04-04T15:28:42.934Z,10.48
2019-04-04T15:31:49.992Z,10.50
2019-04-04T15:34:56.370Z,10.45
2019-04-04T15:38:02.778Z,10.24
2019-04-04T15:41:11.697Z,10.25
2019-04-04T15:44:18.474Z,10.12
2019-04-04T15:47:26.349Z,10.09
2019-04-04T15:50:32.855Z,10.03
2019-04-04T15:53:39.222Z,9.96
2019-04-04T15:56:45.776Z,9.92
2019-04-04T15:59:52.423Z,10.08
2019-04-04T16:02:58.872Z,9.97
2019-04-04T16:06:05.269Z,9.94
2019-04-04T16:09:13.292Z,10.03
2019-04-04T16:12:19.735Z,10.09
2019-04-04T16:15:26.192Z,10.07
2019-04-04T16:18:34.174Z,10.00
2019-04-04T16:21:40.667Z,9.90
2019-04-04T16:24:46.939Z,10.03
2019-04-04T16:27:53.352Z,10.04
2019-04-04T16:31:00.697Z,9.94
2019-04-04T16:34:07.386Z,9.80
2019-04-04T16:37:13.744Z,9.91
2019-04-04T16:40:20.397Z,9.99
2019-04-04T16:43:26.748Z,9.69
2019-04-04T16:46:33.262Z,9.51
2019-04-04T16:49:39.726Z,9.49
2019-04-04T16:52:46.143Z,9.34
2019-04-04T16:55:52.838Z,9.24
2019-04-04T16:58:59.451Z,9.22
2019-04-04T17:02:06.374Z,9.12
2019-04-04T17:05:12.965Z,9.33
2019-04-04T17:08:19.533Z,9.17
2019-04-04T17:11:26.105Z,8.98
2019-04-04T17:14:33.303Z,9.05
2019-04-04T17:17:39.988Z,8.98
2019-04-04T17:20:46.449Z,8.98
2019-04-04T17:23:52.855Z,8.89
2019-04-04T17:26:59.338Z,8.72
2019-04-04T17:30:06.871Z,8.74
2019-04-04T17:33:13.128Z,8.51
2019-04-04T17:36:21.441Z,8.32
2019-04-04T17:39:28.280Z,8.35
2019-04-04T17:42:34.653Z,8.33
2019-04-04T17:45:40.997Z,8.37
2019-04-04T17:48:47.553Z,8.06
2019-04-04T17:51:53.816Z,8.11
2019-04-04T17:55:00.268Z,8.11
2019-04-04T17:58:07.102Z,8.11
2019-04-04T18:01:16.863Z,8.10
2019-04-04T18:04:25.115Z,8.06
2019-04-04T18:07:31.544Z,8.05
2019-04-04T18:10:38.028Z,8.11
2019-04-04T18:13:44.743Z,8.06
2019-04-04T18:16:51.153Z,7.99
2019-04-04T18:19:57.540Z,7.81
2019-04-04T18:23:03.923Z,7.87
2019-04-04T18:26:14.775Z,7.84
2019-04-04T18:29:22.661Z,7.76
2019-04-04T18:32:29.586Z,7.66
2019-04-04T18:35:35.990Z,7.42
2019-04-04T18:38:42.718Z,7.30
2019-04-04T18:41:50.211Z,7.23
2019-04-04T18:44:56.601Z,7.20
2019-04-04T18:48:02.951Z,6.84
2019-04-04T18:51:09.492Z,6.84
2019-04-04T18:54:15.930Z,6.76
2019-04-04T18:57:22.419Z,6.61
2019-04-04T19:00:28.736Z,6.56
2019-04-04T19:03:35.227Z,6.50
2019-04-04T19:06:42.097Z,6.37
2019-04-04T19:09:48.571Z,6.45
2019-04-04T19:13:05.203Z,6.43
2019-04-04T19:16:05.283Z,6.39
2019-04-04T19:19:11.783Z,6.38
2019-04-04T19:22:18.205Z,6.29
2019-04-04T19:25:24.657Z,6.27
2019-04-04T19:28:31.475Z,6.26
2019-04-04T19:31:38.149Z,6.35
2019-04-04T19:34:44.680Z,6.40
2019-04-04T19:37:59.941Z,6.38
2019-04-04T19:41:00.394Z,6.38
2019-04-04T19:44:08.435Z,6.06
2019-04-04T19:47:14.959Z,6.09
2019-04-04T19:50:21.569Z,6.13
2019-04-04T19:53:29.825Z,6.08
2019-04-04T19:56:36.294Z,6.08
2019-04-04T19:59:42.852Z,6.05
2019-04-04T20:02:49.396Z,6.07
2019-04-04T20:05:55.907Z,6.10
2019-04-04T20:09:02.667Z,6.14
2019-04-04T20:12:10.872Z,6.15
2019-04-04T20:15:19.511Z,6.12
2019-04-04T20:18:26.013Z,6.20
2019-04-04T20:21:32.596Z,6.20
2019-04-04T20:24:38.900Z,6.14
2019-04-04T20:27:54.501Z,6.20
2019-04-04T20:30:53.932Z,6.14
2019-04-04T20:34:01.943Z,6.09
2019-04-04T20:37:08.742Z,6.10
2019-04-04T20:40:15.980Z,6.15
2019-04-04T20:43:22.709Z,6.16
2019-04-04T20:46:29.281Z,6.18
2019-04-04T20:49:35.645Z,6.20
2019-04-04T20:52:44.676Z,6.19
2019-04-04T20:55:51.246Z,6.24
2019-04-04T20:58:57.611Z,6.34
2019-04-04T21:02:05.058Z,6.39
2019-04-04T21:05:11.763Z,6.41
2019-04-04T21:08:18.962Z,6.49
2019-04-04T21:11:25.599Z,6.54
2019-04-04T21:14:31.937Z,6.51
2019-04-04T21:17:38.280Z,6.56
2019-04-04T21:20:44.823Z,6.69
2019-04-04T21:23:51.496Z,6.71
2019-04-04T21:26:57.814Z,6.77
2019-04-04T21:30:04.488Z,6.37
2019-04-04T21:33:10.989Z,6.72
2019-04-04T21:36:17.387Z,6.67
2019-04-04T21:39:23.756Z,6.67
2019-04-04T21:42:30.118Z,6.66
2019-04-04T21:45:36.722Z,6.69
2019-04-04T21:48:43.067Z,6.70
2019-04-04T21:51:49.786Z,6.70
2019-04-04T21:54:56.141Z,6.64
2019-04-04T21:58:02.577Z,6.53
2019-04-04T22:01:14.824Z,6.51
2019-04-04T22:04:22.806Z,6.49
2019-04-04T22:07:29.135Z,6.38
2019-04-04T22:10:35.791Z,6.32
2019-04-04T22:13:42.201Z,6.25
2019-04-04T22:16:48.675Z,6.26
2019-04-04T22:19:55.010Z,6.22
2019-04-04T22:23:01.538Z,6.19
2019-04-04T22:26:07.911Z,6.18
2019-04-04T22:29:14.723Z,6.21
2019-04-04T22:32:21.084Z,6.07
2019-04-04T22:35:27.594Z,6.06
2019-04-04T22:38:33.933Z,6.04
2019-04-04T22:41:40.339Z,6.02
2019-04-04T22:44:46.870Z,5.90
2019-04-04T22:47:54.051Z,5.85
2019-04-04T22:51:00.411Z,5.87
2019-04-04T22:54:06.908Z,5.93
2019-04-04T22:57:13.319Z,5.94
2019-04-04T23:00:20.323Z,5.82
2019-04-04T23:03:28.500Z,5.86
2019-04-04T23:06:35.033Z,5.82
2019-04-04T23:09:41.393Z,5.86
2019-04-04T23:12:47.874Z,5.76
2019-04-04T23:15:54.495Z,5.69
2019-04-04T23:19:00.834Z,5.75
2019-04-04T23:22:07.247Z,5.76
2019-04-04T23:25:14.269Z,5.76
2019-04-04T23:28:20.564Z,5.75
2019-04-04T23:31:27.042Z,5.68
2019-04-04T23:34:33.328Z,5.65
2019-04-04T23:37:39.768Z,5.65
2019-04-04T23:40:46.036Z,5.61
2019-04-04T23:43:52.507Z,5.60
2019-04-04T23:46:58.823Z,5.56
2019-04-04T23:50:05.943Z,5.49
2019-04-04T23:53:12.426Z,5.49
2019-04-04T23:56:18.921Z,5.46
2019-04-04T23:59:25.364Z,5.49
